Charlevoix, MI

4:06 AM EDT on May 24, 2017 (GMT -0400)
Charlevoix Municipal

Weather History for KCVX - October, 2012

Change the Weather History Date:

Tuesday, October 9, 2012

  Actual Average Record
Temperature  
Mean Temperature 50 °F -  
Max Temperature 57 °F 61 °F 78 °F (2003)
Min Temperature 44 °F 44 °F 33 °F (2005)
Degree Days  
Heating Degree Days 14    
Moisture  
Dew Point 42 °F    
Average Humidity 72    
Maximum Humidity 92    
Minimum Humidity 46    
Precipitation  
Precipitation 0.00 in - - ()
Sea Level Pressure  
Sea Level Pressure 29.81 in    
Wind  
Wind Speed 12 mph (SW)    
Max Wind Speed 23 mph    
Max Gust Speed 36 mph    
Visibility 10 miles    
Events Rain    
Averages and records for this station are not official NWS values.
T = Trace of Precipitation, MM = Missing Value Source: NWS Daily Summary

Daily Weather History Graph

Daily Weather History Graph

Search for Another Location

Airport or City:

Trip Planner

Search our weather history database for the weather conditions in past years. The results will help you decide how hot, cold, wet, or windy it might be!

Date:

Astronomy

Oct. 09, 2012 Rise Set
Actual Time 7:49 AM EDT 7:05 PM EDT
Civil Twilight 7:20 AM EDT 7:35 PM EDT
Nautical Twilight 6:46 AM EDT 8:09 PM EDT
Astronomical Twilight 6:11 AM EDT 8:43 PM EDT
Moon 1:09 AM EDT (10/9) 3:47 PM EDT (10/9)
Length of Visible Light 12h 14m
Length of Day
11h 15m
Last Quarter, 37% of the Moon is Illuminated
Oct 9
Last Quarter
Oct 15
New
Oct 21
First Quarter
Oct 29
Full
Nov 6
Last Quarter

Hourly Weather History & Observations

Time (EDT) Temp. Windchill Dew Point Humidity Pressure Visibility Wind Dir Wind Speed Gust Speed Precip Events Conditions
12:34 AM 51.4 °F - 31.1 °F 46% 29.92 in 10.0 mi South 15.0 mph 20.7 mph N/A   Overcast
12:54 AM 51.1 °F - 31.1 °F 46% 29.91 in 10.0 mi South 11.5 mph 20.7 mph N/A   Overcast
1:14 AM 50.9 °F - 31.1 °F 47% 29.90 in 10.0 mi South 10.4 mph 20.7 mph N/A   Overcast
1:34 AM 50.4 °F - 32.0 °F 49% 29.90 in 10.0 mi South 9.2 mph 17.3 mph N/A   Overcast
1:54 AM 50.4 °F - 32.0 °F 49% 29.89 in 10.0 mi South 10.4 mph - N/A   Overcast
2:14 AM 50.4 °F - 32.0 °F 49% 29.89 in 10.0 mi South 11.5 mph 18.4 mph N/A   Overcast
2:43 AM 50.4 °F - 33.3 °F 52% 29.89 in 10.0 mi South 11.5 mph 17.3 mph N/A   Scattered Clouds
3:14 AM 50.5 °F - 34.3 °F 54% 29.87 in 10.0 mi South 11.5 mph 21.9 mph N/A   Scattered Clouds
3:54 AM 49.6 °F - 35.1 °F 57% 29.86 in 10.0 mi South 12.7 mph 18.4 mph N/A   Scattered Clouds
4:14 AM 49.6 °F - 35.6 °F 59% 29.85 in 10.0 mi South 11.5 mph 17.3 mph N/A   Scattered Clouds
4:34 AM 50.0 °F - 36.1 °F 59% 29.85 in 10.0 mi SSE 15.0 mph 19.6 mph N/A   Mostly Cloudy
4:53 AM 49.6 °F - 36.3 °F 60% 29.85 in 10.0 mi South 11.5 mph 16.1 mph N/A   Scattered Clouds
5:14 AM 49.5 °F - 36.7 °F 61% 29.84 in 10.0 mi South 10.4 mph - N/A   Scattered Clouds
5:34 AM 49.5 °F - 37.4 °F 63% 29.85 in 10.0 mi South 8.1 mph - N/A   Clear
5:54 AM 50.0 °F - 38.1 °F 64% 29.85 in 10.0 mi South 8.1 mph - N/A   Mostly Cloudy
6:14 AM 50.9 °F - 38.7 °F 63% 29.85 in 10.0 mi South 9.2 mph 16.1 mph N/A   Overcast
6:34 AM 51.8 °F - 39.2 °F 62% 29.84 in 10.0 mi South 10.4 mph 17.3 mph N/A   Overcast
6:54 AM 52.7 °F - 39.4 °F 61% 29.84 in 10.0 mi South 16.1 mph 26.5 mph N/A   Scattered Clouds
7:14 AM 52.7 °F - 39.7 °F 61% 29.84 in 10.0 mi SSW 12.7 mph 18.4 mph N/A   Clear
7:34 AM 52.7 °F - 40.1 °F 62% 29.84 in 10.0 mi SSW 10.4 mph 19.6 mph N/A   Mostly Cloudy
7:54 AM 52.7 °F - 40.5 °F 63% 29.84 in 10.0 mi SSW 11.5 mph 21.9 mph N/A   Overcast
8:14 AM 52.3 °F - 41.0 °F 65% 29.84 in 10.0 mi South 9.2 mph 20.7 mph N/A   Mostly Cloudy
8:34 AM 52.7 °F - 41.0 °F 64% 29.84 in 10.0 mi SSW 13.8 mph 18.4 mph N/A   Mostly Cloudy
8:54 AM 52.7 °F - 41.4 °F 65% 29.85 in 10.0 mi SSW 10.4 mph 25.3 mph N/A   Overcast
9:14 AM 51.8 °F - 42.4 °F 70% 29.85 in 10.0 mi SSW 10.4 mph 19.6 mph N/A   Light Drizzle
9:34 AM 51.8 °F - 43.0 °F 72% 29.85 in 10.0 mi SW 9.2 mph 17.3 mph N/A Rain Light Rain
9:54 AM 51.8 °F - 44.4 °F 76% 29.85 in 10.0 mi SW 10.4 mph 17.3 mph N/A   Light Drizzle
10:14 AM 51.8 °F - 44.4 °F 76% 29.85 in 10.0 mi SW 12.7 mph 18.4 mph N/A   Overcast
10:34 AM 51.3 °F - 44.8 °F 78% 29.85 in 7.0 mi SW 15.0 mph 19.6 mph N/A   Overcast
10:54 AM 51.1 °F - 45.5 °F 81% 29.86 in 10.0 mi SW 10.4 mph 18.4 mph N/A   Overcast
11:14 AM 50.9 °F - 45.9 °F 83% 29.85 in 10.0 mi SW 6.9 mph - N/A   Light Drizzle
11:34 AM 52.0 °F - 46.2 °F 81% 29.84 in 7.0 mi SSW 8.1 mph - N/A Rain Light Rain
11:54 AM 52.7 °F - 46.6 °F 80% 29.84 in 10.0 mi SSW 8.1 mph - N/A Rain Light Rain
12:15 PM 52.7 °F - 46.2 °F 79% 29.84 in 10.0 mi SW 6.9 mph - N/A   Overcast
12:34 PM 52.9 °F - 46.4 °F 79% 29.83 in 10.0 mi SW 8.1 mph - N/A   Overcast
12:54 PM 52.7 °F - 46.2 °F 79% 29.82 in 10.0 mi WSW 8.1 mph - N/A Rain Light Rain
1:15 PM 53.1 °F - 45.7 °F 76% 29.82 in 10.0 mi SW 6.9 mph - N/A   Overcast
1:34 PM 52.7 °F - 46.2 °F 79% 29.81 in 10.0 mi SW 8.1 mph - N/A Rain Light Rain
1:54 PM 52.7 °F - 46.8 °F 80% 29.80 in 10.0 mi SSW 5.8 mph - N/A   Light Drizzle
2:14 PM 52.7 °F - 46.6 °F 80% 29.78 in 10.0 mi Calm Calm - N/A Rain Light Rain
2:34 PM 53.4 °F - 47.1 °F 79% 29.78 in 10.0 mi SW 6.9 mph - N/A   Overcast
2:54 PM 53.6 °F - 48.0 °F 81% 29.77 in 10.0 mi SW 6.9 mph - N/A   Overcast
3:14 PM 53.4 °F - 47.7 °F 81% 29.76 in 10.0 mi SSW 3.5 mph - N/A   Overcast
3:34 PM 54.1 °F - 47.7 °F 79% 29.75 in 10.0 mi SSW 6.9 mph - N/A   Overcast
3:54 PM 55.0 °F - 47.3 °F 75% 29.73 in 10.0 mi SSW 4.6 mph - N/A   Mostly Cloudy
4:14 PM 56.1 °F - 47.5 °F 73% 29.72 in 10.0 mi South 3.5 mph - N/A   Mostly Cloudy
4:34 PM 55.9 °F - 47.1 °F 72% 29.72 in 10.0 mi SSW 4.6 mph - N/A   Overcast
4:54 PM 55.9 °F - 47.1 °F 72% 29.71 in 10.0 mi SSW 6.9 mph - N/A   Overcast
5:14 PM 57.4 °F - 45.7 °F 65% 29.70 in 10.0 mi SSW 15.0 mph 25.3 mph N/A   Light Drizzle
5:34 PM 57.4 °F - 45.9 °F 65% 29.71 in 10.0 mi SW 15.0 mph 23.0 mph N/A   Overcast
5:54 PM 54.9 °F - 46.6 °F 74% 29.72 in 7.0 mi SW 17.3 mph 28.8 mph N/A Rain Light Rain
6:14 PM 53.4 °F - 47.5 °F 80% 29.72 in 7.0 mi WSW 11.5 mph 23.0 mph N/A Rain Rain
6:34 PM 52.7 °F - 48.6 °F 86% 29.72 in 7.0 mi WSW 10.4 mph 18.4 mph N/A Rain Light Rain
6:54 PM 52.7 °F - 49.6 °F 89% 29.73 in 10.0 mi WSW 11.5 mph - N/A Rain Light Rain
7:14 PM 50.7 °F - 47.5 °F 89% 29.73 in 7.0 mi WSW 17.3 mph 28.8 mph N/A Rain Light Rain
7:34 PM 50.5 °F - 48.2 °F 92% 29.73 in 7.0 mi West 18.4 mph 24.2 mph N/A Rain Rain
7:54 PM 50.0 °F - 47.1 °F 90% 29.74 in 10.0 mi WSW 20.7 mph 32.2 mph N/A Rain Light Rain
8:14 PM 50.0 °F - 46.6 °F 88% 29.74 in 10.0 mi WSW 16.1 mph 25.3 mph N/A Rain Light Rain
8:34 PM 49.1 °F - 45.5 °F 87% 29.74 in 10.0 mi West 20.7 mph 35.7 mph N/A Rain Light Rain
8:54 PM 48.4 °F - 45.3 °F 89% 29.76 in 7.0 mi West 23.0 mph 29.9 mph N/A Rain Light Rain
9:14 PM 47.8 °F - 44.6 °F 89% 29.76 in 10.0 mi West 20.7 mph 29.9 mph N/A Rain Light Rain
9:34 PM 46.8 °F - 43.5 °F 88% 29.76 in 10.0 mi West 23.0 mph 28.8 mph N/A Rain Light Rain
9:54 PM 46.0 °F 38.3 °F 42.1 °F 86% 29.77 in 10.0 mi West 20.7 mph 31.1 mph N/A Rain Light Rain
10:14 PM 45.1 °F 37.6 °F 41.0 °F 85% 29.77 in 10.0 mi West 18.4 mph 23.0 mph N/A   Drizzle
10:34 PM 44.6 °F 37.2 °F 38.3 °F 79% 29.77 in 7.0 mi West 17.3 mph 25.3 mph N/A Rain Light Rain
10:54 PM 44.8 °F 37.4 °F 37.8 °F 76% 29.77 in 7.0 mi West 17.3 mph 24.2 mph N/A   Drizzle
11:14 PM 45.0 °F 40.6 °F 39.4 °F 81% 29.77 in 10.0 mi WSW 8.1 mph - N/A Rain Light Rain
11:34 PM 45.5 °F 39.6 °F 39.2 °F 79% 29.77 in 10.0 mi West 12.7 mph 17.3 mph N/A Rain Light Rain
11:54 PM 45.3 °F 42.3 °F 38.7 °F 78% 29.77 in 10.0 mi WSW 5.8 mph 19.6 mph N/A Rain Light Rain